Skip Navigation

Christman Field Latest Observations

Switch to metric unitsOther observation timesWeekly graphs

Date Time
MST
Temp
°F
RH
%
DewPt
°F
Wind
mph
Dir
°
Gust
mph
Dir
°
Press
in Hg
Solar
W/m^2
Prec
in
2022-01-24 03:15 34.3 53.3 19.1 5.3 111 6.4 121 24.733 0.0 0.00
2022-01-24 03:10 33.2 51.7 17.3 5.1 125 6.2 206 24.735 0.0 0.00
2022-01-24 03:05 33.0 57.9 19.8 5.6 220 9.9 247 24.739 0.0 0.00
2022-01-24 03:00 31.6 57.5 18.3 5.9 208 8.9 261 24.740 0.0 0.00
2022-01-24 02:55 30.7 58.3 17.7 4.5 262 9.0 267 24.737 0.0 0.00
2022-01-24 02:50 29.9 62.3 18.6 3.0 202 4.1 224 24.736 0.0 0.00
2022-01-24 02:45 31.3 58.7 18.6 4.2 216 5.4 252 24.737 0.0 0.00
2022-01-24 02:40 30.3 60.2 18.2 3.8 266 5.7 216 24.739 0.0 0.00
2022-01-24 02:35 32.3 59.2 19.6 3.5 227 5.8 230 24.742 0.0 0.00
2022-01-24 02:30 32.0 55.5 17.9 3.5 130 4.6 250 24.744 0.0 0.00
2022-01-24 02:25 29.5 59.7 17.2 2.7 259 4.9 255 24.745 0.0 0.00
2022-01-24 02:20 31.4 62.6 20.2 3.4 46 7.7 17 24.742 0.0 0.00
2022-01-24 02:15 33.5 52.4 17.9 4.4 266 8.8 131 24.737 0.0 0.00
2022-01-24 02:10 32.6 53.1 17.4 5.5 123 8.0 133 24.734 0.0 0.00
2022-01-24 02:05 35.4 52.7 19.8 4.1 166 4.6 127 24.738 0.0 0.00
2022-01-24 02:00 35.1 46.9 16.8 3.4 127 4.7 111 24.739 0.0 0.00
2022-01-24 01:55 33.4 51.8 17.6 1.6 123 3.1 202 24.738 0.0 0.00
2022-01-24 01:50 32.6 53.3 17.5 3.1 205 5.0 259 24.737 0.0 0.00
2022-01-24 01:45 31.6 55.9 17.6 3.8 199 4.8 130 24.730 0.0 0.00
2022-01-24 01:40 31.3 60.3 19.2 4.6 170 6.4 196 24.731 0.0 0.00
2022-01-24 01:35 29.6 59.5 17.2 6.1 191 7.9 221 24.730 0.0 0.00
2022-01-24 01:30 30.9 63.1 19.8 5.6 217 8.2 220 24.734 0.0 0.00
2022-01-24 01:25 32.2 57.2 18.8 2.4 188 4.9 187 24.734 0.0 0.00
2022-01-24 01:20 32.2 56.3 18.4 2.3 319 3.5 27 24.736 0.0 0.00
2022-01-24 01:15 30.4 59.1 17.8 2.3 130 4.8 284 24.733 0.0 0.00
2022-01-24 01:10 31.1 60.4 18.9 6.0 275 10.1 88 24.729 0.0 0.00
2022-01-24 01:05 29.5 63.3 18.6 3.5 92 10.0 39 24.731 0.0 0.00
2022-01-24 01:00 30.3 62.2 19.0 2.8 15 7.8 15 24.731 0.0 0.00
2022-01-24 00:55 29.2 64.2 18.6 2.6 1 5.3 339 24.731 0.0 0.00
2022-01-24 00:50 30.2 65.2 20.0 3.8 339 6.9 327 24.731 0.0 0.00